Time;durP1;ratioP1;P1;durP2;ratioP2;P2;SDS_P1;SDS_P2;PMS_P1;PMS_P2;Temp;Humidity;BMP_temperature;BMP_pressure;BME280_temperature;BME280_humidity;BME280_pressure;Samples;Min_cycle;Max_cycle;Signal;HPM_P1;HPM_P2
2023/01/25 00:01:06;;;;;;;9.98;4.20;;;;;;;10.28;100.00;101937.31;2107749;28;20145;-73
2023/01/25 00:02:28;;;;;;;7.70;4.22;;;;;;;10.28;100.00;101941.69;2108975;28;20114;-73
2023/01/25 00:03:50;;;;;;;8.70;4.30;;;;;;;10.29;100.00;101939.13;2114627;28;20085;-73
2023/01/25 00:05:11;;;;;;;8.48;4.70;;;;;;;10.30;100.00;101943.56;2101029;28;20051;-73
2023/01/25 00:06:34;;;;;;;10.98;5.60;;;;;;;10.32;100.00;101931.28;2086714;28;20443;-73
2023/01/25 00:07:58;;;;;;;8.73;4.93;;;;;;;10.33;100.00;101937.47;2104802;28;20044;-73
2023/01/25 00:09:21;;;;;;;10.90;6.25;;;;;;;10.32;100.00;101936.56;2112088;28;20052;-73
2023/01/25 00:10:43;;;;;;;11.75;6.82;;;;;;;10.31;100.00;101934.78;2107277;28;20040;-72
2023/01/25 00:12:06;;;;;;;12.20;5.93;;;;;;;10.31;100.00;101941.78;2103033;28;20055;-73
2023/01/25 00:13:27;;;;;;;12.40;5.82;;;;;;;10.31;100.00;101936.50;2115894;27;20580;-73
2023/01/25 00:14:50;;;;;;;10.43;5.35;;;;;;;10.29;100.00;101935.59;2106321;27;20055;-72
2023/01/25 00:16:11;;;;;;;8.95;4.72;;;;;;;10.29;100.00;101932.94;2114436;28;20085;-73
2023/01/25 00:17:34;;;;;;;9.25;3.63;;;;;;;10.28;100.00;101939.06;2100081;28;20055;-73
2023/01/25 00:18:55;;;;;;;8.93;4.82;;;;;;;10.28;100.00;101934.69;2106527;28;20036;-73
2023/01/25 00:20:18;;;;;;;9.60;4.80;;;;;;;10.29;100.00;101932.94;2109341;28;20106;-73
2023/01/25 00:21:39;;;;;;;9.23;5.47;;;;;;;10.31;100.00;101941.78;2103358;28;20416;-73
2023/01/25 00:23:04;;;;;;;11.20;5.65;;;;;;;10.30;100.00;101935.66;2096047;28;20056;-72
2023/01/25 00:24:25;;;;;;;8.23;4.53;;;;;;;10.29;100.00;101933.84;2094036;28;20040;-74
2023/01/25 00:25:48;;;;;;;8.75;5.25;;;;;;;10.28;100.00;101941.69;2099226;28;20048;-73
2023/01/25 00:27:10;;;;;;;12.35;6.95;;;;;;;10.27;100.00;101934.63;2111071;28;20051;-72
2023/01/25 00:28:32;;;;;;;13.57;7.07;;;;;;;10.26;100.00;101928.44;2097275;28;20036;-73
2023/01/25 00:29:54;;;;;;;13.35;7.50;;;;;;;10.27;100.00;101931.97;2100587;28;20075;-73
2023/01/25 00:31:20;;;;;;;9.52;4.65;;;;;;;10.25;100.00;101928.38;2103190;28;20056;-73
2023/01/25 00:32:49;;;;;;;11.60;5.00;;;;;;;10.24;100.00;101926.63;2103321;28;20158;-73
2023/01/25 00:34:39;;;;;;;7.80;4.97;;;;;;;10.24;100.00;101926.63;2104403;28;20052;-73
2023/01/25 00:36:01;;;;;;;10.48;5.65;;;;;;;10.24;100.00;101927.47;2097776;28;20044;-73
2023/01/25 00:37:28;;;;;;;11.25;5.47;;;;;;;10.27;100.00;101930.25;2094769;28;20072;-73
2023/01/25 00:38:55;;;;;;;20.15;10.48;;;;;;;10.28;100.00;101929.41;2103551;28;20585;-73
2023/01/25 00:40:17;;;;;;;22.42;15.40;;;;;;;10.26;100.00;101931.09;2097079;28;20055;-74
2023/01/25 00:41:39;;;;;;;30.73;21.55;;;;;;;10.26;100.00;101931.09;2089252;28;20060;-73
2023/01/25 00:43:02;;;;;;;35.72;24.58;;;;;;;10.27;100.00;101934.63;2092195;28;20079;-73
2023/01/25 00:44:26;;;;;;;34.70;23.48;;;;;;;10.27;100.00;101930.25;2086855;28;20072;-74
2023/01/25 00:45:48;;;;;;;36.28;25.98;;;;;;;10.26;100.00;101933.72;2092172;28;20408;-73
2023/01/25 00:47:10;;;;;;;38.70;30.02;;;;;;;10.27;100.00;101921.44;2094472;28;20036;-73
2023/01/25 00:48:32;;;;;;;;;;;;;;;10.18;100.00;101927.25;2096765;28;20087;-73
2023/01/25 00:49:56;;;;;;;24.83;19.20;;;;;;;10.18;100.00;101919.34;2103260;28;19956;-73
2023/01/25 00:51:17;;;;;;;22.25;15.45;;;;;;;10.19;100.00;101918.50;2103202;28;20073;-73
2023/01/25 00:52:40;;;;;;;21.17;13.85;;;;;;;10.18;100.00;101924.63;2101749;28;20050;-73
2023/01/25 00:54:04;;;;;;;14.57;10.63;;;;;;;10.19;100.00;101925.53;2098832;28;20049;-73
2023/01/25 00:55:27;;;;;;;12.55;9.25;;;;;;;10.18;100.00;101914.06;2111648;28;20036;-74
2023/01/25 00:56:51;;;;;;;10.27;7.45;;;;;;;10.18;100.00;101919.34;2107528;28;20051;-73
2023/01/25 00:58:13;;;;;;;12.30;7.47;;;;;;;10.19;100.00;101913.22;2095244;28;20618;-73
2023/01/25 00:59:35;;;;;;;13.35;7.70;;;;;;;10.20;100.00;101911.50;2101986;28;20159;-72
2023/01/25 01:00:57;;;;;;;13.63;7.55;;;;;;;10.18;100.00;101919.34;2102521;28;20113;-73
2023/01/25 01:02:20;;;;;;;11.07;7.70;;;;;;;10.19;100.00;101914.97;2094582;28;20040;-73
2023/01/25 01:03:42;;;;;;;11.32;6.30;;;;;;;10.19;100.00;101912.34;2100319;28;20044;-73
2023/01/25 01:05:04;;;;;;;10.95;5.88;;;;;;;10.17;100.00;101914.94;2103333;28;20052;-73
2023/01/25 01:06:27;;;;;;;9.38;5.03;;;;;;;10.15;100.00;101911.31;2107726;28;20043;-73
2023/01/25 01:07:50;;;;;;;7.53;4.10;;;;;;;10.12;100.00;101905.00;2095063;28;20044;-72
2023/01/25 01:09:17;;;;;;;6.75;3.85;;;;;;;10.10;100.00;101897.06;2099141;28;20495;-73
2023/01/25 01:10:39;;;;;;;6.97;3.58;;;;;;;10.07;100.00;101902.22;2103008;28;20539;-73
2023/01/25 01:12:01;;;;;;;9.65;5.03;;;;;;;10.07;100.00;101891.66;2105586;28;20412;-72
2023/01/25 01:13:26;;;;;;;9.52;4.35;;;;;;;10.08;100.00;101897.84;2094741;28;20044;-74
2023/01/25 01:14:48;;;;;;;8.90;4.60;;;;;;;10.08;100.00;101892.56;2108188;28;20042;-72
2023/01/25 01:16:11;;;;;;;8.55;4.40;;;;;;;10.08;100.00;101893.47;2097297;28;20086;-73
2023/01/25 01:17:33;;;;;;;11.90;6.70;;;;;;;10.08;100.00;101889.91;2108654;28;20047;-73
2023/01/25 01:18:54;;;;;;;8.50;4.75;;;;;;;10.09;100.00;101889.09;2096967;28;20052;-73
2023/01/25 01:20:17;;;;;;;9.63;4.88;;;;;;;10.08;100.00;101893.47;2102227;28;20048;-73
2023/01/25 01:21:41;;;;;;;8.65;4.45;;;;;;;10.07;100.00;101891.66;2102478;28;20512;-73
2023/01/25 01:23:03;;;;;;;7.55;4.43;;;;;;;10.06;100.00;101886.31;2111280;28;20838;-73
2023/01/25 01:24:26;;;;;;;8.75;4.50;;;;;;;10.08;100.00;101888.19;2100058;28;20101;-74
2023/01/25 01:25:49;;;;;;;8.40;5.22;;;;;;;10.10;100.00;101890.88;2105470;28;20043;-73
2023/01/25 01:27:12;;;;;;;11.05;5.35;;;;;;;10.11;100.00;101890.03;2094552;28;20444;-73
2023/01/25 01:28:35;;;;;;;9.02;5.25;;;;;;;10.10;100.00;101886.50;2101749;28;20048;-73
2023/01/25 01:29:57;;;;;;;11.73;5.60;;;;;;;10.11;100.00;101885.63;2111284;28;20388;-73
2023/01/25 01:31:20;;;;;;;12.75;5.63;;;;;;;10.11;100.00;101888.28;2102621;28;20128;-73
2023/01/25 01:32:58;;;;;;;13.93;5.82;;;;;;;10.08;100.00;101887.28;2103592;28;20052;-73
2023/01/25 01:34:19;;;;;;;9.48;4.28;;;;;;;10.05;100.00;101882.78;2098521;28;20044;-73
2023/01/25 01:35:42;;;;;;;8.27;4.65;;;;;;;10.04;100.00;101891.56;2106258;28;20060;-73
2023/01/25 01:37:03;;;;;;;9.68;5.10;;;;;;;10.05;100.00;101893.34;2118172;27;20058;-73
2023/01/25 01:38:25;;;;;;;11.75;5.22;;;;;;;10.03;100.00;101892.41;2111869;28;20503;-73
2023/01/25 01:39:49;;;;;;;12.90;5.43;;;;;;;10.04;100.00;101899.47;2110430;28;20044;-73
2023/01/25 01:41:11;;;;;;;9.85;5.07;;;;;;;10.05;100.00;101889.78;2100141;28;20101;-73
2023/01/25 01:42:34;;;;;;;8.30;4.55;;;;;;;10.05;100.00;101888.06;2094161;28;20032;-73
2023/01/25 01:43:57;;;;;;;11.55;4.60;;;;;;;10.05;100.00;101892.44;2094051;28;20056;-73
2023/01/25 01:45:47;;;;;;;9.05;4.55;;;;;;;10.04;100.00;101888.03;2101475;28;20071;-73
2023/01/25 01:47:18;;;;;;;9.95;4.63;;;;;;;10.03;100.00;101889.78;2098358;28;20052;-73
2023/01/25 01:48:43;;;;;;;7.85;4.57;;;;;;;10.06;100.00;101888.97;2095866;28;20079;-73
2023/01/25 01:50:17;;;;;;;10.30;4.90;;;;;;;10.05;100.00;101888.06;2095484;28;20063;-73
2023/01/25 01:51:46;;;;;;;10.23;5.32;;;;;;;10.04;100.00;101885.38;2106137;28;20052;-73
2023/01/25 01:53:14;;;;;;;8.18;5.00;;;;;;;10.03;100.00;101894.16;2100651;28;20413;-73
2023/01/25 01:54:43;;;;;;;10.07;4.95;;;;;;;10.04;100.00;101883.66;2096942;28;20392;-73
2023/01/25 01:56:12;;;;;;;9.80;5.93;;;;;;;10.05;100.00;101889.78;2104247;28;20114;-73
2023/01/25 01:57:38;;;;;;;13.82;7.03;;;;;;;10.07;100.00;101893.41;2108681;28;20138;-73
2023/01/25 01:59:01;;;;;;;12.85;9.20;;;;;;;10.10;100.00;101894.41;2105844;28;20048;-73
2023/01/25 02:00:26;;;;;;;11.20;6.18;;;;;;;10.16;100.00;101891.09;2097206;28;20094;-74
2023/01/25 02:01:48;;;;;;;16.98;11.13;;;;;;;10.20;100.00;101893.03;2099371;28;20056;-73
2023/01/25 02:03:13;;;;;;;28.15;20.17;;;;;;;10.23;100.00;101896.69;2100711;28;20109;-73
2023/01/25 02:04:37;;;;;;;19.83;13.82;;;;;;;10.24;100.00;101892.31;2101994;28;20044;-73
2023/01/25 02:06:11;;;;;;;18.92;13.32;;;;;;;10.28;100.00;101896.84;2097519;28;20032;-73
2023/01/25 02:07:37;;;;;;;24.17;15.13;;;;;;;10.28;100.00;101895.09;2098655;28;20477;-74
2023/01/25 02:09:00;;;;;;;16.90;13.05;;;;;;;10.27;100.00;101895.94;2086202;28;20037;-73
2023/01/25 02:10:24;;;;;;;15.20;10.27;;;;;;;10.27;100.00;101887.13;2101135;28;20071;-73
2023/01/25 02:11:51;;;;;;;17.10;12.18;;;;;;;10.28;100.00;101888.91;2122040;22;20038;-72
2023/01/25 02:13:14;;;;;;;14.98;11.80;;;;;;;10.28;100.00;101897.72;2089120;28;20051;-73
2023/01/25 02:14:40;;;;;;;23.65;17.02;;;;;;;10.31;100.00;101902.19;2085708;28;20048;-73
2023/01/25 02:16:02;;;;;;;23.20;17.38;;;;;;;10.29;100.00;101899.53;2077034;28;20509;-74
2023/01/25 02:17:26;;;;;;;;;;;;;;;10.21;100.00;101895.72;2068036;28;20046;-73
2023/01/25 02:18:54;;;;;;;24.15;19.73;;;;;;;10.19;100.00;101894.75;2073641;28;19921;-73
2023/01/25 02:20:23;;;;;;;25.52;20.10;;;;;;;10.22;100.00;101893.97;2081794;28;20045;-73
2023/01/25 02:21:49;;;;;;;14.25;8.77;;;;;;;10.19;100.00;101884.22;2073084;28;20054;-73
2023/01/25 02:23:17;;;;;;;12.68;7.80;;;;;;;10.20;100.00;101887.75;2084499;28;20045;-73
2023/01/25 02:24:47;;;;;;;9.40;4.60;;;;;;;10.20;100.00;101890.38;2088693;28;20048;-73
2023/01/25 02:26:10;;;;;;;10.80;5.05;;;;;;;10.19;100.00;101884.22;2087281;28;20119;-73
2023/01/25 02:27:36;;;;;;;7.88;3.83;;;;;;;10.18;100.00;101890.31;2086683;28;20047;-72
2023/01/25 02:29:02;;;;;;;8.73;3.90;;;;;;;10.19;100.00;101888.59;2078714;28;20060;-72
2023/01/25 02:30:25;;;;;;;6.85;4.07;;;;;;;10.18;100.00;101890.31;2074247;28;20076;-73
2023/01/25 02:31:48;;;;;;;8.32;3.80;;;;;;;10.18;100.00;101892.06;2075675;28;20563;-72
2023/01/25 02:33:12;;;;;;;8.15;4.10;;;;;;;10.17;100.00;101888.56;2092770;28;20143;-73
2023/01/25 02:34:35;;;;;;;7.50;4.28;;;;;;;10.17;100.00;101890.28;2080053;28;20098;-73
2023/01/25 02:36:15;;;;;;;7.03;3.75;;;;;;;10.15;100.00;101884.91;2075382;28;20156;-74
2023/01/25 02:37:40;;;;;;;8.70;4.07;;;;;;;10.11;100.00;101893.56;2080997;28;20086;-72
2023/01/25 02:39:06;;;;;;;6.47;3.78;;;;;;;10.10;100.00;101888.25;2084360;28;20398;-72
2023/01/25 02:40:30;;;;;;;8.27;5.00;;;;;;;10.08;100.00;101889.91;2082912;28;20045;-73
2023/01/25 02:41:54;;;;;;;12.57;4.78;;;;;;;10.11;100.00;101887.41;2076464;28;20164;-73
2023/01/25 02:43:17;;;;;;;10.00;5.28;;;;;;;10.13;100.00;101886.59;2072629;28;20140;-73
2023/01/25 02:44:42;;;;;;;10.65;5.00;;;;;;;10.16;100.00;101889.38;2082763;28;20568;-73
2023/01/25 02:46:12;;;;;;;10.48;5.63;;;;;;;10.20;100.00;101887.75;2084766;28;20037;-72
2023/01/25 02:47:39;;;;;;;8.27;4.25;;;;;;;10.18;100.00;101895.59;2081063;28;20144;-73
2023/01/25 02:49:02;;;;;;;9.27;4.82;;;;;;;10.18;100.00;101884.16;2089238;28;20143;-73
2023/01/25 02:50:24;;;;;;;10.13;6.28;;;;;;;10.18;100.00;101890.31;2081286;28;20502;-73
2023/01/25 02:51:49;;;;;;;12.13;5.25;;;;;;;10.16;100.00;101885.81;2081544;28;20033;-73
2023/01/25 02:53:10;;;;;;;8.88;4.25;;;;;;;10.12;100.00;101892.72;2081783;28;20153;-72
2023/01/25 02:54:32;;;;;;;6.65;4.30;;;;;;;10.09;100.00;101887.34;2090147;28;20055;-73
2023/01/25 02:55:54;;;;;;;8.82;3.75;;;;;;;10.09;100.00;101894.34;2088386;28;20412;-73
2023/01/25 02:57:18;;;;;;;7.90;3.97;;;;;;;10.11;100.00;101890.91;2085371;28;20052;-73
2023/01/25 02:58:39;;;;;;;7.32;4.15;;;;;;;10.15;100.00;101894.56;2085712;28;20044;-73
2023/01/25 03:00:01;;;;;;;11.57;5.00;;;;;;;10.17;100.00;101892.94;2085118;28;20136;-73
2023/01/25 03:01:25;;;;;;;7.80;3.72;;;;;;;10.19;100.00;101889.47;2075458;28;20045;-73
2023/01/25 03:02:46;;;;;;;9.70;3.92;;;;;;;10.22;100.00;101891.34;2074749;28;20524;-73
2023/01/25 03:04:09;;;;;;;8.02;3.75;;;;;;;10.22;100.00;101879.06;2082241;28;20043;-73
2023/01/25 03:05:30;;;;;;;9.90;4.78;;;;;;;10.23;100.00;101888.78;2084695;28;20055;-73
2023/01/25 03:06:53;;;;;;;9.38;4.00;;;;;;;10.26;100.00;101895.88;2087517;28;20060;-73
2023/01/25 03:08:15;;;;;;;9.02;4.60;;;;;;;10.25;100.00;101888.78;2079931;28;20037;-72
2023/01/25 03:09:37;;;;;;;8.98;5.43;;;;;;;10.25;100.00;101889.69;2083150;28;20051;-73
2023/01/25 03:11:02;;;;;;;20.10;12.13;;;;;;;10.24;100.00;101894.94;2080742;28;20046;-73
2023/01/25 03:12:27;;;;;;;23.63;15.85;;;;;;;10.21;100.00;101887.81;2080677;28;20429;-73
2023/01/25 03:13:51;;;;;;;20.25;12.93;;;;;;;10.17;100.00;101882.38;2077005;28;20136;-73
2023/01/25 03:15:13;;;;;;;17.02;10.00;;;;;;;10.15;100.00;101884.03;2076364;28;20099;-73
2023/01/25 03:16:36;;;;;;;23.40;16.10;;;;;;;10.14;100.00;101888.41;2083001;28;20595;-73
2023/01/25 03:17:59;;;;;;;23.05;15.98;;;;;;;10.16;100.00;101883.19;2080443;28;20552;-72
2023/01/25 03:19:22;;;;;;;12.73;7.38;;;;;;;10.15;100.00;101884.91;2072197;28;20136;-73
2023/01/25 03:20:44;;;;;;;19.63;12.82;;;;;;;10.18;100.00;101892.97;2077361;28;20049;-73
2023/01/25 03:22:08;;;;;;;10.32;5.70;;;;;;;10.19;100.00;101885.94;2077910;28;20053;-73
2023/01/25 03:23:29;;;;;;;11.63;6.68;;;;;;;10.22;100.00;101881.69;2078493;28;20087;-73
2023/01/25 03:24:52;;;;;;;14.10;6.38;;;;;;;10.23;100.00;101872.94;2080217;28;20041;-73
2023/01/25 03:26:18;;;;;;;12.57;6.18;;;;;;;10.26;100.00;101874.75;2086064;28;20139;-73
2023/01/25 03:27:56;;;;;;;12.50;9.07;;;;;;;10.25;100.00;101876.50;2080423;28;20033;-73
2023/01/25 03:29:19;;;;;;;13.93;7.72;;;;;;;10.23;100.00;101872.03;2091040;28;20064;-73
2023/01/25 03:30:44;;;;;;;15.30;10.20;;;;;;;10.21;100.00;101885.16;2088345;28;20079;-73
2023/01/25 03:32:06;;;;;;;11.40;7.35;;;;;;;10.19;100.00;101878.03;2077673;28;20049;-73
2023/01/25 03:33:28;;;;;;;11.25;6.45;;;;;;;10.20;100.00;101882.47;2069608;28;20088;-73
2023/01/25 03:34:50;;;;;;;9.13;6.18;;;;;;;10.21;100.00;101876.34;2082014;28;20135;-73
2023/01/25 03:36:13;;;;;;;14.18;9.23;;;;;;;10.23;100.00;101874.69;2085995;28;20048;-73
2023/01/25 03:37:37;;;;;;;11.75;6.63;;;;;;;10.21;100.00;101874.63;2086343;28;20041;-73
2023/01/25 03:38:59;;;;;;;11.13;5.72;;;;;;;10.20;100.00;101871.91;2077130;28;20496;-73
2023/01/25 03:40:22;;;;;;;12.98;6.60;;;;;;;10.19;100.00;101872.75;2081581;28;20052;-73
2023/01/25 03:41:44;;;;;;;10.40;5.78;;;;;;;10.18;100.00;101877.13;2091703;28;20110;-73
2023/01/25 03:43:10;;;;;;;13.15;6.18;;;;;;;10.17;100.00;101885.91;2079952;28;20049;-73
2023/01/25 03:44:31;;;;;;;16.23;9.20;;;;;;;10.15;100.00;101884.03;2091971;28;20044;-73
2023/01/25 03:45:57;;;;;;;12.50;7.53;;;;;;;10.13;100.00;101881.31;2078480;28;20135;-73
2023/01/25 03:47:19;;;;;;;14.13;9.15;;;;;;;10.12;100.00;101895.34;2067673;28;20056;-73
2023/01/25 03:48:41;;;;;;;15.18;9.90;;;;;;;10.12;100.00;101905.00;2080908;28;20056;-73
2023/01/25 03:50:04;;;;;;;15.40;10.98;;;;;;;10.09;100.00;101904.91;2069681;28;20053;-73
2023/01/25 03:51:27;;;;;;;18.63;9.35;;;;;;;10.08;100.00;101911.03;2083745;28;20488;-73
2023/01/25 03:52:58;;;;;;;13.88;7.85;;;;;;;10.05;100.00;101914.44;2085737;28;20049;-74
2023/01/25 03:54:26;;;;;;;11.55;6.18;;;;;;;10.02;100.00;101903.78;2086899;28;20133;-73
2023/01/25 03:55:47;;;;;;;10.30;5.53;;;;;;;10.01;100.00;101909.91;2085698;28;20053;-73
2023/01/25 03:57:11;;;;;;;8.93;5.35;;;;;;;9.98;100.00;101909.78;2088208;28;20048;-73
2023/01/25 03:58:45;;;;;;;9.55;4.88;;;;;;;9.96;100.00;101915.03;2079390;28;20052;-73
2023/01/25 04:00:11;;;;;;;7.88;4.72;;;;;;;9.93;100.00;101911.34;2073718;28;20126;-73
2023/01/25 04:01:43;;;;;;;7.80;4.20;;;;;;;9.90;100.00;101925.34;2084828;28;20041;-73
2023/01/25 04:03:04;;;;;;;7.63;4.00;;;;;;;9.93;100.00;101921.91;2077776;28;20482;-74
2023/01/25 04:04:27;;;;;;;8.65;4.15;;;;;;;9.99;100.00;101922.13;2091547;28;20037;-73
2023/01/25 04:05:49;;;;;;;8.90;4.28;;;;;;;10.05;100.00;101914.44;2089057;28;20060;-73
2023/01/25 04:07:12;;;;;;;10.38;4.60;;;;;;;10.12;100.00;101919.09;2078191;28;20143;-74
2023/01/25 04:08:36;;;;;;;9.93;5.15;;;;;;;10.18;100.00;101922.00;2074592;28;20456;-73
2023/01/25 04:09:58;;;;;;;9.77;4.32;;;;;;;10.22;100.00;101912.47;2085612;28;20072;-73
2023/01/25 04:11:22;;;;;;;9.38;4.70;;;;;;;10.23;100.00;101916.91;2076055;28;20045;-73
2023/01/25 04:12:44;;;;;;;8.52;4.45;;;;;;;10.26;100.00;101924.91;2076294;28;20042;-72
2023/01/25 04:14:10;;;;;;;8.48;3.97;;;;;;;10.28;100.00;101928.50;2078448;28;20049;-73
2023/01/25 04:15:43;;;;;;;8.18;4.35;;;;;;;10.28;100.00;101926.75;2085923;28;20052;-73
2023/01/25 04:17:15;;;;;;;7.35;4.15;;;;;;;10.29;100.00;101927.66;2080895;28;20103;-73
2023/01/25 04:18:58;;;;;;;7.35;4.28;;;;;;;10.31;100.00;101921.56;2096922;28;20048;-73
2023/01/25 04:20:20;;;;;;;8.68;4.03;;;;;;;10.33;100.00;101930.47;2080085;28;20060;-73
2023/01/25 04:21:43;;;;;;;9.32;5.03;;;;;;;10.34;100.00;101926.06;2075849;28;20095;-73
2023/01/25 04:23:05;;;;;;;14.93;9.20;;;;;;;10.31;100.00;101929.50;2081074;28;20053;-73
2023/01/25 04:24:32;;;;;;;12.93;6.93;;;;;;;10.28;100.00;101923.22;2078801;28;20387;-73
2023/01/25 04:25:55;;;;;;;11.68;6.00;;;;;;;10.28;100.00;101929.41;2072981;28;20046;-74
2023/01/25 04:27:18;;;;;;;10.95;5.32;;;;;;;10.30;100.00;101934.75;2087677;28;20049;-73
2023/01/25 04:28:50;;;;;;;10.70;6.13;;;;;;;10.31;100.00;101934.78;2079500;28;20053;-74
2023/01/25 04:30:13;;;;;;;13.30;8.32;;;;;;;10.35;100.00;101933.16;2075929;28;20049;-73
2023/01/25 04:31:38;;;;;;;11.70;7.20;;;;;;;10.35;100.00;101934.06;2084693;28;20103;-73
2023/01/25 04:33:03;;;;;;;10.65;6.50;;;;;;;10.39;100.00;101940.31;2086793;28;20107;-73
2023/01/25 04:34:26;;;;;;;14.23;9.77;;;;;;;10.39;100.00;101928.03;2078802;28;20700;-73
2023/01/25 04:35:49;;;;;;;16.13;9.65;;;;;;;10.40;100.00;101934.22;2067481;28;20064;-73
2023/01/25 04:37:13;;;;;;;24.48;18.17;;;;;;;10.39;100.00;101929.78;2076136;28;20052;-73
2023/01/25 04:38:46;;;;;;;19.52;13.88;;;;;;;10.34;100.00;101926.06;2078424;28;20045;-73
2023/01/25 04:40:08;;;;;;;12.13;6.68;;;;;;;10.30;100.00;101930.38;2078364;28;20088;-73
2023/01/25 04:41:36;;;;;;;11.57;6.40;;;;;;;10.29;100.00;101936.47;2073396;28;20057;-73
2023/01/25 04:42:59;;;;;;;11.73;5.78;;;;;;;10.28;100.00;101934.69;2083806;28;20060;-73
2023/01/25 04:44:20;;;;;;;9.50;5.80;;;;;;;10.29;100.00;101936.47;2077362;28;20045;-73
2023/01/25 04:45:45;;;;;;;10.30;5.72;;;;;;;10.29;100.00;101928.56;2083756;28;20045;-73
2023/01/25 04:47:14;;;;;;;9.77;5.78;;;;;;;10.29;100.00;101936.47;2079841;28;20049;-73
2023/01/25 04:48:38;;;;;;;9.00;5.05;;;;;;;10.30;100.00;101937.38;2072488;28;20052;-73
2023/01/25 04:50:02;;;;;;;11.43;4.85;;;;;;;10.30;100.00;101940.91;2078274;28;20566;-73
2023/01/25 04:51:26;;;;;;;9.32;4.45;;;;;;;10.33;100.00;101946.28;2072906;28;20050;-73
2023/01/25 04:52:47;;;;;;;10.50;4.55;;;;;;;10.34;100.00;101941.91;2078112;28;20057;-73
2023/01/25 04:54:10;;;;;;;10.48;4.95;;;;;;;10.35;100.00;101947.25;2078005;28;20600;-73
2023/01/25 04:55:33;;;;;;;12.32;5.28;;;;;;;10.34;100.00;101950.72;2078098;28;20524;-73
2023/01/25 04:56:54;;;;;;;10.80;4.88;;;;;;;10.34;100.00;101950.72;2082962;28;20081;-73
2023/01/25 04:58:17;;;;;;;11.07;5.43;;;;;;;10.32;100.00;101952.41;2080878;28;20044;-73
2023/01/25 04:59:38;;;;;;;14.15;7.40;;;;;;;10.32;100.00;101954.16;2072999;28;20046;-73
2023/01/25 05:01:04;;;;;;;15.38;8.07;;;;;;;10.28;100.00;101950.53;2062768;28;20080;-73
2023/01/25 05:02:28;;;;;;;16.05;7.55;;;;;;;10.24;100.00;101958.28;2074292;28;20125;-73
2023/01/25 05:03:51;;;;;;;10.73;5.53;;;;;;;10.19;100.00;101957.19;2078415;28;20053;-74
2023/01/25 05:05:21;;;;;;;11.25;5.00;;;;;;;10.15;100.00;101952.63;2086869;28;20059;-73
2023/01/25 05:06:44;;;;;;;12.13;5.55;;;;;;;10.17;100.00;101958.91;2076636;28;20044;-74
2023/01/25 05:08:07;;;;;;;13.80;5.43;;;;;;;10.18;100.00;101955.38;2071201;28;20056;-73
2023/01/25 05:09:30;;;;;;;11.73;5.03;;;;;;;10.21;100.00;101959.06;2083043;28;20600;-74
2023/01/25 05:10:52;;;;;;;9.75;4.80;;;;;;;10.25;100.00;101954.78;2085137;28;20053;-73
2023/01/25 05:12:27;;;;;;;8.60;5.05;;;;;;;10.26;100.00;101968.03;2079959;28;20049;-73
2023/01/25 05:13:55;;;;;;;11.25;5.18;;;;;;;10.30;100.00;101964.69;2077159;28;20064;-73
2023/01/25 05:15:23;;;;;;;13.02;4.90;;;;;;;10.32;100.00;101962.97;2086381;28;20485;-74
2023/01/25 05:16:46;;;;;;;8.73;4.57;;;;;;;10.35;100.00;101960.44;2078125;28;20128;-73
2023/01/25 05:18:09;;;;;;;7.60;4.15;;;;;;;10.37;100.00;101960.50;2086437;28;20052;-74
2023/01/25 05:19:31;;;;;;;11.40;5.28;;;;;;;10.36;100.00;101956.97;2084236;28;20052;-73
2023/01/25 05:20:59;;;;;;;13.05;5.35;;;;;;;10.38;100.00;101964.91;2078542;28;20037;-73
2023/01/25 05:22:22;;;;;;;10.25;5.10;;;;;;;10.38;100.00;101957.00;2078431;28;20053;-72
2023/01/25 05:23:47;;;;;;;13.98;4.85;;;;;;;10.39;100.00;101964.97;2071675;28;20438;-73
2023/01/25 05:26:59;;;;;;;9.50;5.25;;;;;;;10.42;100.00;101968.59;2068477;28;20077;-74
2023/01/25 05:27:02;;;;;;;16.75;9.85;;;;;;;10.45;100.00;101963.41;2080678;28;20461;-74
2023/01/25 05:28:34;;;;;;;13.05;8.13;;;;;;;10.48;100.00;101968.81;2079598;28;20353;-73
2023/01/25 05:30:21;;;;;;;12.52;6.13;;;;;;;10.55;100.00;101969.06;2074808;28;20564;-73
2023/01/25 05:32:06;;;;;;;20.65;13.40;;;;;;;10.61;100.00;101969.28;2079836;28;20099;-73
2023/01/25 05:33:29;;;;;;;20.38;14.15;;;;;;;10.61;100.00;101968.38;2074656;28;20469;-74
2023/01/25 05:34:52;;;;;;;34.45;24.45;;;;;;;10.59;100.00;101970.06;2083311;28;20060;-73
2023/01/25 05:36:14;;;;;;;32.15;25.77;;;;;;;10.55;100.00;101981.38;2072180;28;20045;-73
2023/01/25 05:37:37;;;;;;;19.85;16.83;;;;;;;10.53;100.00;101972.50;2067535;28;20121;-73
2023/01/25 05:39:05;;;;;;;23.52;17.48;;;;;;;10.51;100.00;101974.16;2078377;28;20050;-73
2023/01/25 05:40:29;;;;;;;23.23;19.50;;;;;;;10.49;100.00;101975.88;2081638;28;20056;-73
2023/01/25 05:41:53;;;;;;;20.77;13.93;;;;;;;10.48;100.00;101974.97;2077157;28;20842;-73
2023/01/25 05:43:16;;;;;;;14.85;11.10;;;;;;;10.50;100.00;101975.91;2085720;28;20049;-73
2023/01/25 05:44:38;;;;;;;16.15;11.25;;;;;;;10.53;100.00;101977.78;2072043;28;20136;-73
2023/01/25 05:46:01;;;;;;;22.08;15.15;;;;;;;10.52;100.00;101978.63;2074517;28;20057;-73
2023/01/25 05:47:26;;;;;;;11.02;7.57;;;;;;;10.47;100.00;101978.47;2082665;28;20808;-73
2023/01/25 05:48:49;;;;;;;11.57;5.97;;;;;;;10.43;100.00;101975.66;2081002;28;20638;-73
2023/01/25 05:50:11;;;;;;;10.82;6.05;;;;;;;10.45;100.00;101977.50;2084326;28;20481;-72
2023/01/25 05:51:48;;;;;;;7.65;4.70;;;;;;;10.48;100.00;101972.34;2087607;28;20467;-73
2023/01/25 05:53:10;;;;;;;9.85;4.75;;;;;;;10.53;100.00;101975.13;2076707;28;20133;-73
2023/01/25 05:54:33;;;;;;;10.60;4.93;;;;;;;10.58;100.00;101971.81;2089829;28;20056;-73
2023/01/25 05:56:04;;;;;;;9.15;4.63;;;;;;;10.67;100.00;101965.94;2078834;28;20513;-73
2023/01/25 05:57:28;;;;;;;9.25;4.43;;;;;;;10.73;100.00;101969.69;2081606;28;20041;-73
2023/01/25 05:58:52;;;;;;;10.48;5.25;;;;;;;10.81;100.00;101966.44;2086328;28;20074;-72
2023/01/25 06:00:17;;;;;;;13.45;5.60;;;;;;;10.88;100.00;101976.34;2085001;28;20792;-73
2023/01/25 06:01:39;;;;;;;8.50;5.15;;;;;;;10.93;100.00;101972.13;2091108;28;20125;-74
2023/01/25 06:03:03;;;;;;;11.02;4.97;;;;;;;10.98;100.00;101971.41;2080009;28;20136;-73
2023/01/25 06:04:29;;;;;;;10.75;5.63;;;;;;;11.00;100.00;101971.47;2069559;28;20113;-73
2023/01/25 06:05:54;;;;;;;12.50;5.38;;;;;;;11.07;100.00;101973.47;2073272;28;20191;-73
2023/01/25 06:07:16;;;;;;;10.27;5.53;;;;;;;11.11;100.00;101973.63;2083498;28;20045;-73
2023/01/25 06:08:39;;;;;;;8.70;5.03;;;;;;;11.16;100.00;101974.66;2085799;28;21076;-73
2023/01/25 06:10:01;;;;;;;10.90;6.25;;;;;;;11.22;100.00;101975.75;2084237;28;20045;-72
2023/01/25 06:11:24;;;;;;;14.63;8.32;;;;;;;11.26;100.00;101977.63;2076345;28;20082;-73
2023/01/25 06:12:48;;;;;;;11.93;6.32;;;;;;;11.27;100.00;101980.31;2074325;28;20041;-75
2023/01/25 06:14:10;;;;;;;12.68;5.57;;;;;;;11.29;100.00;101985.66;2084444;28;20417;-72
2023/01/25 06:15:33;;;;;;;16.17;8.15;;;;;;;11.30;100.00;101990.97;2077779;28;20495;-74
2023/01/25 06:17:15;;;;;;;11.88;6.78;;;;;;;11.29;100.00;101991.81;2087800;28;20044;-73
2023/01/25 06:18:54;;;;;;;11.60;5.63;;;;;;;11.28;100.00;101987.41;2085334;28;20048;-73
2023/01/25 06:20:29;;;;;;;8.50;4.88;;;;;;;11.27;100.00;101990.00;2078956;28;20116;-73
2023/01/25 06:22:00;;;;;;;8.48;4.93;;;;;;;11.27;100.00;101988.25;2077921;28;20041;-73
2023/01/25 06:23:23;;;;;;;10.50;5.30;;;;;;;11.29;100.00;101989.16;2091243;28;20044;-73
2023/01/25 06:24:46;;;;;;;9.80;5.00;;;;;;;11.29;100.00;101994.47;2087367;28;20401;-73
2023/01/25 06:26:12;;;;;;;12.75;5.70;;;;;;;11.30;100.00;101992.72;2085509;28;20045;-73
2023/01/25 06:27:34;;;;;;;12.63;7.10;;;;;;;11.31;100.00;101997.16;2086143;28;20458;-74